sensor_id;sensor_type;location;lat;lon;timestamp;P1;durP1;ratioP1;P2;durP2;ratioP2
10389;SDS011;5241;47.830;12.972;2022-12-10T00:01:47;41.50;;;25.00;;
10389;SDS011;5241;47.830;12.972;2022-12-10T00:04:14;47.50;;;26.53;;
10389;SDS011;5241;47.830;12.972;2022-12-10T00:06:41;44.60;;;25.80;;
10389;SDS011;5241;47.830;12.972;2022-12-10T00:09:09;52.10;;;26.87;;
10389;SDS011;5241;47.830;12.972;2022-12-10T00:11:37;45.50;;;26.30;;
10389;SDS011;5241;47.830;12.972;2022-12-10T00:14:03;46.03;;;27.17;;
10389;SDS011;5241;47.830;12.972;2022-12-10T00:16:29;46.00;;;25.80;;
10389;SDS011;5241;47.830;12.972;2022-12-10T00:18:58;45.17;;;26.20;;
10389;SDS011;5241;47.830;12.972;2022-12-10T00:21:25;47.70;;;26.90;;
10389;SDS011;5241;47.830;12.972;2022-12-10T00:23:53;46.40;;;26.67;;
10389;SDS011;5241;47.830;12.972;2022-12-10T00:26:23;48.27;;;27.80;;
10389;SDS011;5241;47.830;12.972;2022-12-10T00:28:50;48.33;;;26.40;;
10389;SDS011;5241;47.830;12.972;2022-12-10T00:31:19;48.90;;;27.23;;
10389;SDS011;5241;47.830;12.972;2022-12-10T00:33:47;51.10;;;27.07;;
10389;SDS011;5241;47.830;12.972;2022-12-10T00:36:14;44.57;;;27.03;;
10389;SDS011;5241;47.830;12.972;2022-12-10T00:38:45;47.97;;;27.20;;
10389;SDS011;5241;47.830;12.972;2022-12-10T00:41:12;48.20;;;26.07;;
10389;SDS011;5241;47.830;12.972;2022-12-10T00:43:38;48.50;;;28.27;;
10389;SDS011;5241;47.830;12.972;2022-12-10T00:46:04;46.17;;;27.53;;
10389;SDS011;5241;47.830;12.972;2022-12-10T00:48:31;48.27;;;29.00;;
10389;SDS011;5241;47.830;12.972;2022-12-10T00:50:58;46.87;;;27.13;;
10389;SDS011;5241;47.830;12.972;2022-12-10T00:53:25;49.37;;;28.53;;
10389;SDS011;5241;47.830;12.972;2022-12-10T00:55:52;49.20;;;28.83;;
10389;SDS011;5241;47.830;12.972;2022-12-10T00:58:18;57.00;;;31.53;;
10389;SDS011;5241;47.830;12.972;2022-12-10T01:00:45;48.97;;;28.67;;
10389;SDS011;5241;47.830;12.972;2022-12-10T01:03:10;55.70;;;29.43;;
10389;SDS011;5241;47.830;12.972;2022-12-10T01:05:36;49.63;;;29.00;;
10389;SDS011;5241;47.830;12.972;2022-12-10T01:08:01;52.70;;;29.83;;
10389;SDS011;5241;47.830;12.972;2022-12-10T01:10:27;49.53;;;28.10;;
10389;SDS011;5241;47.830;12.972;2022-12-10T01:12:53;48.47;;;28.17;;
10389;SDS011;5241;47.830;12.972;2022-12-10T01:15:18;54.57;;;30.63;;
10389;SDS011;5241;47.830;12.972;2022-12-10T01:17:44;54.97;;;28.27;;
10389;SDS011;5241;47.830;12.972;2022-12-10T01:20:09;54.57;;;29.17;;
10389;SDS011;5241;47.830;12.972;2022-12-10T01:22:35;58.33;;;31.43;;
10389;SDS011;5241;47.830;12.972;2022-12-10T01:25:01;49.37;;;28.73;;
10389;SDS011;5241;47.830;12.972;2022-12-10T01:27:26;51.83;;;29.60;;
10389;SDS011;5241;47.830;12.972;2022-12-10T01:29:52;47.67;;;28.13;;
10389;SDS011;5241;47.830;12.972;2022-12-10T01:32:17;55.57;;;30.97;;
10389;SDS011;5241;47.830;12.972;2022-12-10T01:34:43;56.83;;;31.57;;
10389;SDS011;5241;47.830;12.972;2022-12-10T01:37:09;57.10;;;30.67;;
10389;SDS011;5241;47.830;12.972;2022-12-10T01:39:34;47.73;;;27.37;;
10389;SDS011;5241;47.830;12.972;2022-12-10T01:42:00;50.07;;;28.27;;
10389;SDS011;5241;47.830;12.972;2022-12-10T01:46:55;50.87;;;28.67;;
10389;SDS011;5241;47.830;12.972;2022-12-10T01:49:25;50.33;;;30.03;;
10389;SDS011;5241;47.830;12.972;2022-12-10T01:51:54;52.43;;;28.20;;
10389;SDS011;5241;47.830;12.972;2022-12-10T01:54:22;48.90;;;29.00;;
10389;SDS011;5241;47.830;12.972;2022-12-10T01:56:54;49.57;;;27.33;;
10389;SDS011;5241;47.830;12.972;2022-12-10T01:59:27;48.13;;;27.67;;
10389;SDS011;5241;47.830;12.972;2022-12-10T02:04:53;54.87;;;29.53;;
10389;SDS011;5241;47.830;12.972;2022-12-10T02:12:56;49.73;;;28.47;;
10389;SDS011;5241;47.830;12.972;2022-12-10T02:15:27;54.00;;;29.47;;
10389;SDS011;5241;47.830;12.972;2022-12-10T02:17:58;52.07;;;27.00;;
10389;SDS011;5241;47.830;12.972;2022-12-10T02:20:37;48.03;;;26.57;;
10389;SDS011;5241;47.830;12.972;2022-12-10T02:23:14;52.50;;;28.63;;
10389;SDS011;5241;47.830;12.972;2022-12-10T02:28:51;52.57;;;27.57;;
10389;SDS011;5241;47.830;12.972;2022-12-10T02:31:40;50.43;;;27.83;;
10389;SDS011;5241;47.830;12.972;2022-12-10T02:34:09;49.67;;;27.27;;
10389;SDS011;5241;47.830;12.972;2022-12-10T02:36:37;56.77;;;28.37;;
10389;SDS011;5241;47.830;12.972;2022-12-10T02:39:07;48.73;;;28.17;;
10389;SDS011;5241;47.830;12.972;2022-12-10T02:41:43;49.80;;;29.33;;
10389;SDS011;5241;47.830;12.972;2022-12-10T02:44:13;51.13;;;28.37;;
10389;SDS011;5241;47.830;12.972;2022-12-10T02:46:41;52.37;;;29.23;;
10389;SDS011;5241;47.830;12.972;2022-12-10T02:49:08;52.07;;;28.63;;
10389;SDS011;5241;47.830;12.972;2022-12-10T02:51:38;57.93;;;28.87;;
10389;SDS011;5241;47.830;12.972;2022-12-10T02:54:05;56.63;;;30.43;;
10389;SDS011;5241;47.830;12.972;2022-12-10T03:01:57;63.60;;;30.40;;
10389;SDS011;5241;47.830;12.972;2022-12-10T03:04:33;65.33;;;31.80;;
10389;SDS011;5241;47.830;12.972;2022-12-10T03:07:07;61.93;;;30.53;;
10389;SDS011;5241;47.830;12.972;2022-12-10T03:09:38;71.53;;;31.03;;
10389;SDS011;5241;47.830;12.972;2022-12-10T03:12:14;77.17;;;32.17;;
10389;SDS011;5241;47.830;12.972;2022-12-10T03:14:58;78.50;;;33.07;;
10389;SDS011;5241;47.830;12.972;2022-12-10T03:17:27;82.47;;;33.33;;
10389;SDS011;5241;47.830;12.972;2022-12-10T03:19:55;74.53;;;33.10;;
10389;SDS011;5241;47.830;12.972;2022-12-10T03:22:24;70.67;;;31.80;;
10389;SDS011;5241;47.830;12.972;2022-12-10T03:24:49;74.83;;;32.40;;
10389;SDS011;5241;47.830;12.972;2022-12-10T03:27:16;79.23;;;33.97;;
10389;SDS011;5241;47.830;12.972;2022-12-10T03:29:46;83.90;;;33.73;;
10389;SDS011;5241;47.830;12.972;2022-12-10T03:32:14;88.60;;;34.97;;
10389;SDS011;5241;47.830;12.972;2022-12-10T03:34:41;85.77;;;35.60;;
10389;SDS011;5241;47.830;12.972;2022-12-10T03:37:09;76.83;;;33.00;;
10389;SDS011;5241;47.830;12.972;2022-12-10T03:39:35;69.63;;;30.07;;
10389;SDS011;5241;47.830;12.972;2022-12-10T03:42:03;62.70;;;31.07;;
10389;SDS011;5241;47.830;12.972;2022-12-10T03:44:30;62.47;;;32.07;;
10389;SDS011;5241;47.830;12.972;2022-12-10T03:47:02;61.07;;;29.93;;
10389;SDS011;5241;47.830;12.972;2022-12-10T03:49:29;70.90;;;33.10;;
10389;SDS011;5241;47.830;12.972;2022-12-10T03:51:55;60.90;;;30.60;;
10389;SDS011;5241;47.830;12.972;2022-12-10T03:54:21;64.77;;;32.17;;
10389;SDS011;5241;47.830;12.972;2022-12-10T03:56:46;59.00;;;29.63;;
10389;SDS011;5241;47.830;12.972;2022-12-10T03:59:12;58.57;;;30.03;;
10389;SDS011;5241;47.830;12.972;2022-12-10T04:01:37;52.97;;;28.23;;
10389;SDS011;5241;47.830;12.972;2022-12-10T04:04:04;52.73;;;29.07;;
10389;SDS011;5241;47.830;12.972;2022-12-10T04:06:30;55.20;;;29.23;;
10389;SDS011;5241;47.830;12.972;2022-12-10T04:08:56;56.00;;;29.00;;
10389;SDS011;5241;47.830;12.972;2022-12-10T04:11:21;58.50;;;29.80;;
10389;SDS011;5241;47.830;12.972;2022-12-10T04:13:48;55.57;;;28.10;;
10389;SDS011;5241;47.830;12.972;2022-12-10T04:16:33;56.90;;;29.53;;
10389;SDS011;5241;47.830;12.972;2022-12-10T04:19:00;59.73;;;28.80;;
10389;SDS011;5241;47.830;12.972;2022-12-10T04:21:32;56.27;;;28.93;;
10389;SDS011;5241;47.830;12.972;2022-12-10T04:24:18;60.97;;;30.40;;
10389;SDS011;5241;47.830;12.972;2022-12-10T04:27:05;55.87;;;28.57;;
10389;SDS011;5241;47.830;12.972;2022-12-10T04:29:36;54.63;;;29.00;;
10389;SDS011;5241;47.830;12.972;2022-12-10T04:32:01;52.20;;;28.17;;
10389;SDS011;5241;47.830;12.972;2022-12-10T04:34:28;60.13;;;29.20;;
10389;SDS011;5241;47.830;12.972;2022-12-10T04:36:53;51.73;;;25.83;;
10389;SDS011;5241;47.830;12.972;2022-12-10T04:39:19;53.73;;;28.43;;
10389;SDS011;5241;47.830;12.972;2022-12-10T04:41:45;54.87;;;29.53;;
10389;SDS011;5241;47.830;12.972;2022-12-10T04:44:12;50.97;;;27.23;;
10389;SDS011;5241;47.830;12.972;2022-12-10T04:46:38;51.20;;;26.43;;
10389;SDS011;5241;47.830;12.972;2022-12-10T04:49:04;47.40;;;26.17;;
10389;SDS011;5241;47.830;12.972;2022-12-10T04:51:31;49.97;;;25.90;;
10389;SDS011;5241;47.830;12.972;2022-12-10T04:53:57;45.93;;;26.43;;
10389;SDS011;5241;47.830;12.972;2022-12-10T04:56:23;56.87;;;30.33;;
10389;SDS011;5241;47.830;12.972;2022-12-10T04:58:48;47.63;;;26.97;;
10389;SDS011;5241;47.830;12.972;2022-12-10T05:01:14;50.23;;;27.73;;
10389;SDS011;5241;47.830;12.972;2022-12-10T05:03:40;46.70;;;25.90;;
10389;SDS011;5241;47.830;12.972;2022-12-10T05:06:07;52.77;;;27.37;;
10389;SDS011;5241;47.830;12.972;2022-12-10T05:08:35;52.43;;;28.37;;
10389;SDS011;5241;47.830;12.972;2022-12-10T05:11:06;49.50;;;26.60;;
10389;SDS011;5241;47.830;12.972;2022-12-10T05:13:34;49.47;;;27.37;;
10389;SDS011;5241;47.830;12.972;2022-12-10T05:16:03;51.10;;;28.03;;
10389;SDS011;5241;47.830;12.972;2022-12-10T05:18:29;49.43;;;28.33;;
10389;SDS011;5241;47.830;12.972;2022-12-10T05:20:59;52.43;;;27.17;;
10389;SDS011;5241;47.830;12.972;2022-12-10T05:23:25;48.50;;;28.10;;
10389;SDS011;5241;47.830;12.972;2022-12-10T05:26:00;48.50;;;25.90;;
10389;SDS011;5241;47.830;12.972;2022-12-10T05:28:31;50.40;;;27.70;;
10389;SDS011;5241;47.830;12.972;2022-12-10T05:30:58;54.03;;;27.90;;
10389;SDS011;5241;47.830;12.972;2022-12-10T05:33:25;51.73;;;27.80;;
10389;SDS011;5241;47.830;12.972;2022-12-10T05:35:54;48.30;;;26.70;;
10389;SDS011;5241;47.830;12.972;2022-12-10T05:38:28;55.00;;;28.87;;
10389;SDS011;5241;47.830;12.972;2022-12-10T05:40:55;44.40;;;26.57;;
10389;SDS011;5241;47.830;12.972;2022-12-10T05:43:25;53.53;;;28.40;;
10389;SDS011;5241;47.830;12.972;2022-12-10T05:45:50;55.03;;;30.70;;
10389;SDS011;5241;47.830;12.972;2022-12-10T05:48:16;54.50;;;28.77;;
10389;SDS011;5241;47.830;12.972;2022-12-10T05:50:41;46.77;;;27.03;;
10389;SDS011;5241;47.830;12.972;2022-12-10T05:53:07;49.63;;;27.67;;
10389;SDS011;5241;47.830;12.972;2022-12-10T05:55:33;51.33;;;27.60;;
10389;SDS011;5241;47.830;12.972;2022-12-10T05:57:59;48.80;;;27.10;;
10389;SDS011;5241;47.830;12.972;2022-12-10T06:00:25;50.07;;;26.67;;
10389;SDS011;5241;47.830;12.972;2022-12-10T06:02:52;48.27;;;26.17;;
10389;SDS011;5241;47.830;12.972;2022-12-10T06:05:18;50.30;;;25.93;;
10389;SDS011;5241;47.830;12.972;2022-12-10T06:07:44;48.37;;;26.50;;
10389;SDS011;5241;47.830;12.972;2022-12-10T06:10:10;46.47;;;26.13;;
10389;SDS011;5241;47.830;12.972;2022-12-10T06:12:36;46.17;;;25.90;;
10389;SDS011;5241;47.830;12.972;2022-12-10T06:15:03;51.70;;;26.53;;
10389;SDS011;5241;47.830;12.972;2022-12-10T06:17:30;50.73;;;26.13;;
10389;SDS011;5241;47.830;12.972;2022-12-10T06:19:55;49.90;;;27.47;;
10389;SDS011;5241;47.830;12.972;2022-12-10T06:22:21;48.43;;;27.00;;
10389;SDS011;5241;47.830;12.972;2022-12-10T06:24:46;51.03;;;27.30;;
10389;SDS011;5241;47.830;12.972;2022-12-10T06:27:12;50.10;;;26.90;;
10389;SDS011;5241;47.830;12.972;2022-12-10T06:29:37;51.23;;;28.77;;
10389;SDS011;5241;47.830;12.972;2022-12-10T06:32:03;54.80;;;30.67;;
10389;SDS011;5241;47.830;12.972;2022-12-10T06:34:29;55.37;;;31.67;;
10389;SDS011;5241;47.830;12.972;2022-12-10T06:36:54;60.17;;;31.27;;
10389;SDS011;5241;47.830;12.972;2022-12-10T06:39:20;55.57;;;32.20;;
10389;SDS011;5241;47.830;12.972;2022-12-10T06:41:45;52.73;;;29.07;;
10389;SDS011;5241;47.830;12.972;2022-12-10T06:44:11;54.83;;;28.63;;
10389;SDS011;5241;47.830;12.972;2022-12-10T06:46:38;48.03;;;27.30;;
10389;SDS011;5241;47.830;12.972;2022-12-10T06:49:05;55.97;;;27.33;;
10389;SDS011;5241;47.830;12.972;2022-12-10T06:51:31;47.87;;;26.43;;
10389;SDS011;5241;47.830;12.972;2022-12-10T06:53:57;49.00;;;26.10;;
10389;SDS011;5241;47.830;12.972;2022-12-10T06:56:23;47.03;;;26.13;;
10389;SDS011;5241;47.830;12.972;2022-12-10T06:58:48;48.93;;;26.67;;
10389;SDS011;5241;47.830;12.972;2022-12-10T07:01:21;49.30;;;26.77;;
10389;SDS011;5241;47.830;12.972;2022-12-10T07:03:51;49.07;;;27.70;;
10389;SDS011;5241;47.830;12.972;2022-12-10T07:06:18;56.37;;;31.70;;
10389;SDS011;5241;47.830;12.972;2022-12-10T07:08:44;62.27;;;34.30;;
10389;SDS011;5241;47.830;12.972;2022-12-10T07:11:12;68.63;;;37.33;;
10389;SDS011;5241;47.830;12.972;2022-12-10T07:13:39;67.00;;;41.67;;
10389;SDS011;5241;47.830;12.972;2022-12-10T07:16:15;68.37;;;40.20;;
10389;SDS011;5241;47.830;12.972;2022-12-10T07:18:50;60.13;;;32.17;;
10389;SDS011;5241;47.830;12.972;2022-12-10T07:23:46;51.67;;;25.90;;
10389;SDS011;5241;47.830;12.972;2022-12-10T07:26:13;50.70;;;26.70;;
10389;SDS011;5241;47.830;12.972;2022-12-10T07:28:38;47.97;;;26.13;;
10389;SDS011;5241;47.830;12.972;2022-12-10T07:31:05;47.37;;;25.83;;
10389;SDS011;5241;47.830;12.972;2022-12-10T07:33:32;46.53;;;26.33;;
10389;SDS011;5241;47.830;12.972;2022-12-10T07:35:58;49.73;;;27.07;;
10389;SDS011;5241;47.830;12.972;2022-12-10T07:38:27;47.60;;;24.83;;
10389;SDS011;5241;47.830;12.972;2022-12-10T07:40:53;52.77;;;25.90;;
10389;SDS011;5241;47.830;12.972;2022-12-10T07:43:18;43.47;;;24.33;;
10389;SDS011;5241;47.830;12.972;2022-12-10T07:45:44;48.87;;;26.57;;
10389;SDS011;5241;47.830;12.972;2022-12-10T07:48:09;47.90;;;26.50;;
10389;SDS011;5241;47.830;12.972;2022-12-10T07:50:35;41.10;;;24.57;;
10389;SDS011;5241;47.830;12.972;2022-12-10T07:53:01;45.73;;;26.17;;
10389;SDS011;5241;47.830;12.972;2022-12-10T07:55:26;43.43;;;24.00;;
10389;SDS011;5241;47.830;12.972;2022-12-10T07:57:52;43.47;;;25.93;;
10389;SDS011;5241;47.830;12.972;2022-12-10T08:00:18;37.97;;;23.87;;
10389;SDS011;5241;47.830;12.972;2022-12-10T08:02:43;43.53;;;24.00;;
10389;SDS011;5241;47.830;12.972;2022-12-10T08:05:09;45.73;;;25.07;;
10389;SDS011;5241;47.830;12.972;2022-12-10T08:07:34;41.63;;;24.37;;
10389;SDS011;5241;47.830;12.972;2022-12-10T08:10:00;38.73;;;23.73;;
10389;SDS011;5241;47.830;12.972;2022-12-10T08:12:26;37.43;;;23.33;;
10389;SDS011;5241;47.830;12.972;2022-12-10T08:14:51;42.13;;;24.73;;
10389;SDS011;5241;47.830;12.972;2022-12-10T08:17:17;40.57;;;23.50;;
10389;SDS011;5241;47.830;12.972;2022-12-10T08:19:42;43.00;;;25.30;;
10389;SDS011;5241;47.830;12.972;2022-12-10T08:22:08;43.33;;;25.13;;
10389;SDS011;5241;47.830;12.972;2022-12-10T08:24:34;40.43;;;23.70;;
10389;SDS011;5241;47.830;12.972;2022-12-10T08:26:59;44.47;;;25.27;;
10389;SDS011;5241;47.830;12.972;2022-12-10T08:29:25;39.50;;;23.37;;
10389;SDS011;5241;47.830;12.972;2022-12-10T08:31:51;37.73;;;22.10;;
10389;SDS011;5241;47.830;12.972;2022-12-10T08:34:17;43.70;;;26.57;;
10389;SDS011;5241;47.830;12.972;2022-12-10T08:36:43;70.87;;;37.27;;
10389;SDS011;5241;47.830;12.972;2022-12-10T08:39:09;66.90;;;36.60;;
10389;SDS011;5241;47.830;12.972;2022-12-10T08:41:40;46.27;;;27.43;;
10389;SDS011;5241;47.830;12.972;2022-12-10T08:44:06;48.40;;;29.10;;
10389;SDS011;5241;47.830;12.972;2022-12-10T08:46:31;50.43;;;30.53;;
10389;SDS011;5241;47.830;12.972;2022-12-10T08:48:57;51.10;;;34.03;;
10389;SDS011;5241;47.830;12.972;2022-12-10T08:51:23;45.70;;;27.23;;
10389;SDS011;5241;47.830;12.972;2022-12-10T08:53:49;44.97;;;25.23;;
10389;SDS011;5241;47.830;12.972;2022-12-10T08:56:15;39.00;;;24.77;;
10389;SDS011;5241;47.830;12.972;2022-12-10T08:58:40;41.53;;;23.63;;
10389;SDS011;5241;47.830;12.972;2022-12-10T09:01:09;41.10;;;23.27;;
10389;SDS011;5241;47.830;12.972;2022-12-10T09:03:39;38.97;;;23.90;;
10389;SDS011;5241;47.830;12.972;2022-12-10T09:06:06;40.97;;;25.03;;
10389;SDS011;5241;47.830;12.972;2022-12-10T09:08:34;39.40;;;25.37;;
10389;SDS011;5241;47.830;12.972;2022-12-10T09:11:04;38.63;;;24.17;;
10389;SDS011;5241;47.830;12.972;2022-12-10T09:13:40;39.33;;;23.23;;
10389;SDS011;5241;47.830;12.972;2022-12-10T09:16:08;39.77;;;24.70;;
10389;SDS011;5241;47.830;12.972;2022-12-10T09:18:34;37.70;;;24.53;;
10389;SDS011;5241;47.830;12.972;2022-12-10T09:21:00;37.87;;;23.40;;
10389;SDS011;5241;47.830;12.972;2022-12-10T09:23:29;34.57;;;21.57;;
10389;SDS011;5241;47.830;12.972;2022-12-10T09:25:55;33.17;;;20.50;;
10389;SDS011;5241;47.830;12.972;2022-12-10T09:28:21;35.80;;;22.10;;
10389;SDS011;5241;47.830;12.972;2022-12-10T09:30:54;38.10;;;22.60;;
10389;SDS011;5241;47.830;12.972;2022-12-10T09:33:21;37.40;;;20.90;;
10389;SDS011;5241;47.830;12.972;2022-12-10T09:35:47;33.93;;;20.50;;
10389;SDS011;5241;47.830;12.972;2022-12-10T09:38:12;34.77;;;21.27;;
10389;SDS011;5241;47.830;12.972;2022-12-10T09:40:40;32.23;;;20.57;;
10389;SDS011;5241;47.830;12.972;2022-12-10T09:43:13;33.87;;;21.27;;
10389;SDS011;5241;47.830;12.972;2022-12-10T09:48:30;31.77;;;20.30;;
10389;SDS011;5241;47.830;12.972;2022-12-10T09:51:21;33.70;;;20.33;;
10389;SDS011;5241;47.830;12.972;2022-12-10T09:53:51;32.83;;;21.03;;
10389;SDS011;5241;47.830;12.972;2022-12-10T09:56:24;33.33;;;20.40;;
10389;SDS011;5241;47.830;12.972;2022-12-10T09:58:54;50.93;;;28.40;;
10389;SDS011;5241;47.830;12.972;2022-12-10T10:01:20;49.90;;;30.10;;
10389;SDS011;5241;47.830;12.972;2022-12-10T10:03:50;35.90;;;22.13;;
10389;SDS011;5241;47.830;12.972;2022-12-10T10:06:16;38.37;;;22.67;;
10389;SDS011;5241;47.830;12.972;2022-12-10T10:08:48;33.60;;;21.70;;
10389;SDS011;5241;47.830;12.972;2022-12-10T10:11:18;32.97;;;20.33;;
10389;SDS011;5241;47.830;12.972;2022-12-10T10:13:49;32.30;;;20.67;;
10389;SDS011;5241;47.830;12.972;2022-12-10T10:19:14;65.77;;;29.27;;
10389;SDS011;5241;47.830;12.972;2022-12-10T10:21:43;50.83;;;26.87;;
10389;SDS011;5241;47.830;12.972;2022-12-10T10:24:53;44.87;;;27.87;;
10389;SDS011;5241;47.830;12.972;2022-12-10T10:27:14;42.27;;;26.47;;
10389;SDS011;5241;47.830;12.972;2022-12-10T10:29:46;34.60;;;21.93;;
10389;SDS011;5241;47.830;12.972;2022-12-10T10:32:18;46.03;;;26.03;;
10389;SDS011;5241;47.830;12.972;2022-12-10T10:34:55;40.77;;;24.63;;
10389;SDS011;5241;47.830;12.972;2022-12-10T10:39:53;38.63;;;23.83;;
10389;SDS011;5241;47.830;12.972;2022-12-10T10:42:27;79.20;;;47.20;;
10389;SDS011;5241;47.830;12.972;2022-12-10T10:45:05;38.80;;;23.87;;
10389;SDS011;5241;47.830;12.972;2022-12-10T10:48:02;37.03;;;22.40;;
10389;SDS011;5241;47.830;12.972;2022-12-10T10:50:30;36.73;;;21.93;;
10389;SDS011;5241;47.830;12.972;2022-12-10T10:53:01;37.40;;;23.33;;
10389;SDS011;5241;47.830;12.972;2022-12-10T10:55:30;32.97;;;20.90;;
10389;SDS011;5241;47.830;12.972;2022-12-10T10:58:01;34.40;;;21.20;;
10389;SDS011;5241;47.830;12.972;2022-12-10T11:00:27;34.90;;;20.53;;
10389;SDS011;5241;47.830;12.972;2022-12-10T11:02:52;35.13;;;21.50;;
10389;SDS011;5241;47.830;12.972;2022-12-10T11:05:25;37.73;;;23.83;;
10389;SDS011;5241;47.830;12.972;2022-12-10T11:07:57;35.70;;;22.53;;
10389;SDS011;5241;47.830;12.972;2022-12-10T11:10:25;35.73;;;22.10;;
10389;SDS011;5241;47.830;12.972;2022-12-10T11:12:56;34.80;;;22.20;;
10389;SDS011;5241;47.830;12.972;2022-12-10T11:15:31;54.30;;;33.60;;
10389;SDS011;5241;47.830;12.972;2022-12-10T11:21:02;34.13;;;21.90;;
10389;SDS011;5241;47.830;12.972;2022-12-10T11:23:40;35.93;;;23.23;;
10389;SDS011;5241;47.830;12.972;2022-12-10T11:29:18;37.20;;;22.20;;
10389;SDS011;5241;47.830;12.972;2022-12-10T11:47:54;44.83;;;27.63;;
10389;SDS011;5241;47.830;12.972;2022-12-10T11:50:33;43.97;;;26.77;;
10389;SDS011;5241;47.830;12.972;2022-12-10T11:53:50;42.53;;;25.57;;
10389;SDS011;5241;47.830;12.972;2022-12-10T11:58:49;52.40;;;32.93;;
10389;SDS011;5241;47.830;12.972;2022-12-10T12:12:13;38.27;;;23.90;;
10389;SDS011;5241;47.830;12.972;2022-12-10T12:15:14;39.10;;;23.47;;
10389;SDS011;5241;47.830;12.972;2022-12-10T12:17:55;42.20;;;25.90;;
10389;SDS011;5241;47.830;12.972;2022-12-10T12:20:46;44.50;;;25.70;;
10389;SDS011;5241;47.830;12.972;2022-12-10T12:25:52;44.47;;;27.50;;
10389;SDS011;5241;47.830;12.972;2022-12-10T12:28:34;45.07;;;29.67;;
10389;SDS011;5241;47.830;12.972;2022-12-10T12:31:10;45.10;;;30.43;;
10389;SDS011;5241;47.830;12.972;2022-12-10T12:33:42;48.57;;;29.47;;
10389;SDS011;5241;47.830;12.972;2022-12-10T12:36:21;48.77;;;29.97;;
10389;SDS011;5241;47.830;12.972;2022-12-10T12:38:53;46.30;;;29.10;;
10389;SDS011;5241;47.830;12.972;2022-12-10T12:41:40;47.47;;;29.67;;
10389;SDS011;5241;47.830;12.972;2022-12-10T12:44:15;46.67;;;29.07;;
10389;SDS011;5241;47.830;12.972;2022-12-10T12:46:56;48.97;;;29.93;;
10389;SDS011;5241;47.830;12.972;2022-12-10T12:49:30;47.90;;;29.90;;
10389;SDS011;5241;47.830;12.972;2022-12-10T12:54:44;50.77;;;31.57;;
10389;SDS011;5241;47.830;12.972;2022-12-10T13:05:18;56.10;;;33.33;;
10389;SDS011;5241;47.830;12.972;2022-12-10T13:13:34;58.43;;;35.47;;
10389;SDS011;5241;47.830;12.972;2022-12-10T13:30:37;61.37;;;34.23;;
10389;SDS011;5241;47.830;12.972;2022-12-10T13:40:22;68.10;;;36.53;;
10389;SDS011;5241;47.830;12.972;2022-12-10T13:42:58;71.23;;;38.00;;
10389;SDS011;5241;47.830;12.972;2022-12-10T13:49:12;64.87;;;36.00;;
10389;SDS011;5241;47.830;12.972;2022-12-10T13:54:22;67.60;;;36.83;;
10389;SDS011;5241;47.830;12.972;2022-12-10T13:59:47;70.17;;;36.27;;
10389;SDS011;5241;47.830;12.972;2022-12-10T14:02:52;67.40;;;33.43;;
10389;SDS011;5241;47.830;12.972;2022-12-10T14:08:36;68.07;;;33.77;;
10389;SDS011;5241;47.830;12.972;2022-12-10T14:11:04;70.97;;;36.23;;
10389;SDS011;5241;47.830;12.972;2022-12-10T14:13:36;68.80;;;35.27;;
10389;SDS011;5241;47.830;12.972;2022-12-10T14:16:06;72.73;;;34.30;;
10389;SDS011;5241;47.830;12.972;2022-12-10T14:18:36;68.17;;;34.30;;
10389;SDS011;5241;47.830;12.972;2022-12-10T14:21:04;78.43;;;41.63;;
10389;SDS011;5241;47.830;12.972;2022-12-10T14:23:32;69.87;;;37.23;;
10389;SDS011;5241;47.830;12.972;2022-12-10T14:28:30;78.87;;;40.37;;
10389;SDS011;5241;47.830;12.972;2022-12-10T14:30:58;84.37;;;40.37;;
10389;SDS011;5241;47.830;12.972;2022-12-10T14:33:24;82.17;;;42.60;;
10389;SDS011;5241;47.830;12.972;2022-12-10T14:35:51;76.30;;;37.80;;
10389;SDS011;5241;47.830;12.972;2022-12-10T14:38:29;73.90;;;37.77;;
10389;SDS011;5241;47.830;12.972;2022-12-10T14:40:57;78.73;;;36.53;;
10389;SDS011;5241;47.830;12.972;2022-12-10T14:43:24;75.97;;;36.80;;
10389;SDS011;5241;47.830;12.972;2022-12-10T14:46:02;69.20;;;35.50;;
10389;SDS011;5241;47.830;12.972;2022-12-10T14:48:29;76.73;;;36.03;;
10389;SDS011;5241;47.830;12.972;2022-12-10T14:51:04;80.13;;;37.27;;
10389;SDS011;5241;47.830;12.972;2022-12-10T14:53:35;71.27;;;36.40;;
10389;SDS011;5241;47.830;12.972;2022-12-10T14:56:04;77.83;;;37.40;;
10389;SDS011;5241;47.830;12.972;2022-12-10T14:58:39;83.83;;;39.07;;
10389;SDS011;5241;47.830;12.972;2022-12-10T15:01:15;77.60;;;36.33;;
10389;SDS011;5241;47.830;12.972;2022-12-10T15:03:48;86.27;;;38.47;;
10389;SDS011;5241;47.830;12.972;2022-12-10T15:06:15;76.60;;;36.47;;
10389;SDS011;5241;47.830;12.972;2022-12-10T15:08:43;86.67;;;40.23;;
10389;SDS011;5241;47.830;12.972;2022-12-10T15:11:12;77.00;;;37.33;;
10389;SDS011;5241;47.830;12.972;2022-12-10T15:13:46;79.77;;;39.90;;
10389;SDS011;5241;47.830;12.972;2022-12-10T15:16:19;70.73;;;35.10;;
10389;SDS011;5241;47.830;12.972;2022-12-10T15:18:53;71.33;;;32.97;;
10389;SDS011;5241;47.830;12.972;2022-12-10T15:21:20;71.30;;;33.67;;
10389;SDS011;5241;47.830;12.972;2022-12-10T15:23:47;75.83;;;34.30;;
10389;SDS011;5241;47.830;12.972;2022-12-10T15:26:20;73.50;;;34.60;;
10389;SDS011;5241;47.830;12.972;2022-12-10T15:29:14;74.57;;;34.40;;
10389;SDS011;5241;47.830;12.972;2022-12-10T15:31:55;80.33;;;37.17;;
10389;SDS011;5241;47.830;12.972;2022-12-10T15:34:25;81.73;;;37.47;;
10389;SDS011;5241;47.830;12.972;2022-12-10T15:36:54;77.17;;;34.83;;
10389;SDS011;5241;47.830;12.972;2022-12-10T15:39:28;80.10;;;37.47;;
10389;SDS011;5241;47.830;12.972;2022-12-10T15:42:03;80.63;;;36.33;;
10389;SDS011;5241;47.830;12.972;2022-12-10T15:47:20;79.07;;;36.97;;
10389;SDS011;5241;47.830;12.972;2022-12-10T15:49:48;79.37;;;36.50;;
10389;SDS011;5241;47.830;12.972;2022-12-10T15:54:45;84.70;;;37.80;;
10389;SDS011;5241;47.830;12.972;2022-12-10T15:57:14;89.97;;;42.37;;
10389;SDS011;5241;47.830;12.972;2022-12-10T15:59:43;96.17;;;44.53;;
10389;SDS011;5241;47.830;12.972;2022-12-10T16:04:57;102.77;;;46.13;;
10389;SDS011;5241;47.830;12.972;2022-12-10T16:07:23;100.33;;;46.53;;
10389;SDS011;5241;47.830;12.972;2022-12-10T16:09:49;83.53;;;39.73;;
10389;SDS011;5241;47.830;12.972;2022-12-10T16:12:15;82.27;;;37.97;;
10389;SDS011;5241;47.830;12.972;2022-12-10T16:14:47;81.63;;;39.20;;
10389;SDS011;5241;47.830;12.972;2022-12-10T16:17:20;82.90;;;39.20;;
10389;SDS011;5241;47.830;12.972;2022-12-10T16:19:45;80.20;;;36.50;;
10389;SDS011;5241;47.830;12.972;2022-12-10T16:22:11;75.13;;;34.37;;
10389;SDS011;5241;47.830;12.972;2022-12-10T16:24:37;86.20;;;38.37;;
10389;SDS011;5241;47.830;12.972;2022-12-10T16:27:08;73.67;;;32.77;;
10389;SDS011;5241;47.830;12.972;2022-12-10T16:29:39;69.73;;;32.33;;
10389;SDS011;5241;47.830;12.972;2022-12-10T16:32:07;75.83;;;33.07;;
10389;SDS011;5241;47.830;12.972;2022-12-10T16:34:35;75.47;;;34.27;;
10389;SDS011;5241;47.830;12.972;2022-12-10T16:37:00;91.90;;;42.50;;
10389;SDS011;5241;47.830;12.972;2022-12-10T16:39:26;94.57;;;42.83;;
10389;SDS011;5241;47.830;12.972;2022-12-10T16:41:52;85.10;;;42.50;;
10389;SDS011;5241;47.830;12.972;2022-12-10T16:44:18;64.77;;;33.83;;